Back to Top

My Weather Underground Personal Weather Station Historical Data with Graphs...

Delerius Weather Station Historical Data
Daily Summary for October 24, 2020 Units:  Both    English   Metric
Daily Weekly Monthly Yearly
  High: Low: Average:
Temperature: 57 °F /  13.9 °C 43.2 °F /  6.2 °C 49.8 °F /  9.9 °C
Dew Point: 53.4 °F /  11.9 °C 40.5 °F /  4.7 °C 47.3 °F /  8.5 °C
Humidity: 96% 87% 91%
Wind Speed: 30.1mph /  48.4km/h - 16mph /  25.7km/h
Wind Gust: 44mph /  70.8km/h - -
Wind- - SSW
Pressure: 29.7 in /  1006.9 hPa 29.2 in /  990.0 hPa -
Precipitation: 0.39 in /  9.9 mm    
 
 
Tabular Data for October 24, 2020
Time Temperature Dew Point Pressure Wind Wind Speed Wind Gust Humidity Rainfall Rate (Hourly) solar
00:04 44.4 °F /  6.9 °C 41.7 °F /  5.4 °C 29.7in /  1006.9hPa SSW 12.1mph /  19.4km/h 16mph /  25.7km/h 90% 0in /  0.0mm 0 W/m2
00:09 44.4 °F /  6.9 °C 41.5 °F /  5.3 °C 29.7in /  1006.9hPa SSW 12.3mph /  19.8km/h 16mph /  25.7km/h 89.4% 0in /  0.0mm 0 W/m2
00:14 44.4 °F /  6.9 °C 41.4 °F /  5.2 °C 29.7in /  1006.8hPa SSW 11.1mph /  17.8km/h 16mph /  25.7km/h 89% 0in /  0.0mm 0 W/m2
00:19 44.6 °F /  7 °C 41.5 °F /  5.3 °C 29.7in /  1006.7hPa SSW 11.9mph /  19.2km/h 16mph /  25.7km/h 89% 0in /  0.0mm 0 W/m2
00:24 44.6 °F /  7 °C 41.7 °F /  5.4 °C 29.7in /  1006.6hPa SSW 13.5mph /  21.7km/h 18mph /  29km/h 89% 0in /  0.0mm 0 W/m2
00:29 44.8 °F /  7.1 °C 41.7 °F /  5.4 °C 29.7in /  1006.6hPa SSW 13.9mph /  22.3km/h 20mph /  32.2km/h 89% 0in /  0.0mm 0 W/m2
00:34 44.8 °F /  7.1 °C 41.7 °F /  5.4 °C 29.7in /  1006.5hPa SSW 13.5mph /  21.8km/h 19mph /  30.6km/h 89% 0in /  0.0mm 0 W/m2
00:39 44.6 °F /  7 °C 41.5 °F /  5.3 °C 29.7in /  1006.5hPa SSW 14.2mph /  22.9km/h 20mph /  32.2km/h 89% 0in /  0.0mm 0 W/m2
00:44 44.4 °F /  6.9 °C 41.4 °F /  5.2 °C 29.7in /  1006.5hPa SSW 14.9mph /  24km/h 20mph /  32.2km/h 89% 0in /  0.0mm 0 W/m2
00:49 44.2 °F /  6.8 °C 41.2 °F /  5.1 °C 29.7in /  1006.4hPa SSW 13.9mph /  22.4km/h 18mph /  29km/h 89% 0in /  0.0mm 0 W/m2
00:54 43.9 °F /  6.6 °C 40.8 °F /  4.9 °C 29.7in /  1006.3hPa SSW 13.2mph /  21.3km/h 18mph /  29km/h 89% 0in /  0.0mm 0 W/m2
00:59 43.5 °F /  6.4 °C 40.6 °F /  4.8 °C 29.7in /  1006.3hPa SSW 13.9mph /  22.3km/h 18mph /  29km/h 89.8% 0in /  0.0mm 0 W/m2
01:04 43.3 °F /  6.3 °C 40.6 °F /  4.8 °C 29.7in /  1006.3hPa SSW 13.5mph /  21.7km/h 18mph /  29km/h 90% 0in /  0.0mm 0 W/m2
01:09 43.3 °F /  6.3 °C 40.6 °F /  4.8 °C 29.7in /  1006.3hPa SSW 12.9mph /  20.7km/h 16mph /  25.7km/h 90% 0in /  0.0mm 0 W/m2
01:14 43.3 °F /  6.3 °C 40.6 °F /  4.8 °C 29.7in /  1006.3hPa SSW 13mph /  21km/h 19mph /  30.6km/h 90.3% 0in /  0.0mm 0 W/m2
01:19 43.3 °F /  6.3 °C 40.8 °F /  4.9 °C 29.7in /  1006.3hPa SSW 14mph /  22.5km/h 19mph /  30.6km/h 91% 0in /  0.0mm 0 W/m2
01:24 43.3 °F /  6.3 °C 40.8 °F /  4.9 °C 29.7in /  1006.3hPa SSW 13.6mph /  21.9km/h 19mph /  30.6km/h 91% 0in /  0.0mm 0 W/m2
01:29 43.3 °F /  6.3 °C 40.8 °F /  4.9 °C 29.7in /  1006.3hPa SSW 14.8mph /  23.9km/h 20mph /  32.2km/h 91% 0in /  0.0mm 0 W/m2
01:34 43.5 °F /  6.4 °C 41.2 °F /  5.1 °C 29.7in /  1006.4hPa SSW 16.7mph /  26.9km/h 23mph /  37km/h 91% 0in /  0.0mm 0 W/m2
01:39 43.9 °F /  6.6 °C 41 °F /  5 °C 29.7in /  1006.3hPa SSW 16.8mph /  27km/h 23mph /  37km/h 90.1% 0in /  0.0mm 0 W/m2
01:44 43.9 °F /  6.6 °C 41.2 °F /  5.1 °C 29.7in /  1006.2hPa SSW 16.5mph /  26.5km/h 22mph /  35.4km/h 90% 0in /  0.0mm 0 W/m2
01:49 43.7 °F /  6.5 °C 41 °F /  5 °C 29.7in /  1006.1hPa SSW 15.2mph /  24.4km/h 20mph /  32.2km/h 90% 0in /  0.0mm 0 W/m2
01:54 43.7 °F /  6.5 °C 41 °F /  5 °C 29.7in /  1006.1hPa SSW 15.5mph /  24.9km/h 23mph /  37km/h 90% 0in /  0.0mm 0 W/m2
01:59 43.7 °F /  6.5 °C 41 °F /  5 °C 29.7in /  1006.1hPa SSW 16.2mph /  26.1km/h 22mph /  35.4km/h 90% 0in /  0.0mm 0 W/m2
02:04 43.7 °F /  6.5 °C 41 °F /  5 °C 29.7in /  1006.1hPa SSW 16mph /  25.8km/h 21mph /  33.8km/h 90% 0in /  0.0mm 0 W/m2
02:09 43.7 °F /  6.5 °C 41 °F /  5 °C 29.7in /  1006.0hPa SSW 15.3mph /  24.6km/h 22mph /  35.4km/h 90% 0in /  0.0mm 0 W/m2
02:14 43.9 °F /  6.6 °C 41.2 °F /  5.1 °C 29.7in /  1006.0hPa SSW 16mph /  25.7km/h 23mph /  37km/h 90% 0in /  0.0mm 0 W/m2
02:19 43.9 °F /  6.6 °C 40.8 °F /  4.9 °C 29.7in /  1005.9hPa SSW 14.4mph /  23.2km/h 23mph /  37km/h 89.3% 0in /  0.0mm 0 W/m2
02:24 43.9 °F /  6.6 °C 40.8 °F /  4.9 °C 29.7in /  1005.8hPa SSW 15.3mph /  24.6km/h 20mph /  32.2km/h 89.4% 0in /  0.0mm 0 W/m2
02:29 44.1 °F /  6.7 °C 41 °F /  5 °C 29.7in /  1005.7hPa SSW 14.7mph /  23.7km/h 21mph /  33.8km/h 89% 0in /  0.0mm 0 W/m2
02:34 43.9 °F /  6.6 °C 40.8 °F /  4.9 °C 29.7in /  1005.7hPa South 12.4mph /  19.9km/h 16mph /  25.7km/h 89% 0in /  0.0mm 0 W/m2
02:39 43.7 °F /  6.5 °C 40.6 °F /  4.8 °C 29.7in /  1005.7hPa South 10.9mph /  17.6km/h 18mph /  29km/h 89% 0in /  0.0mm 0 W/m2
02:44 43.5 °F /  6.4 °C 40.6 °F /  4.8 °C 29.7in /  1005.5hPa South 12.8mph /  20.6km/h 22mph /  35.4km/h 89.2% 0in /  0.0mm 0 W/m2
02:49 43.5 °F /  6.4 °C 40.8 °F /  4.9 °C 29.7in /  1005.5hPa South 16.3mph /  26.2km/h 23mph /  37km/h 89.8% 0in /  0.0mm 0 W/m2
02:54 43.3 °F /  6.3 °C 40.6 °F /  4.8 °C 29.7in /  1005.4hPa South 15.9mph /  25.6km/h 23mph /  37km/h 90% 0in /  0.0mm 0 W/m2
02:59 43.3 °F /  6.3 °C 40.6 °F /  4.8 °C 29.7in /  1005.4hPa South 14.2mph /  22.8km/h 23mph /  37km/h 90% 0in /  0.0mm 0 W/m2
03:04 43.2 °F /  6.2 °C 40.5 °F /  4.7 °C 29.7in /  1005.2hPa South 15mph /  24.2km/h 20mph /  32.2km/h 90% 0in /  0.0mm 0 W/m2
03:09 43.3 °F /  6.3 °C 40.6 °F /  4.8 °C 29.7in /  1005.1hPa South 14mph /  22.6km/h 20mph /  32.2km/h 90% 0in /  0.0mm 0 W/m2
03:14 43.3 °F /  6.3 °C 40.6 °F /  4.8 °C 29.7in /  1005.1hPa South 12.8mph /  20.6km/h 20mph /  32.2km/h 90% 0in /  0.0mm 0 W/m2
03:19 43.3 °F /  6.3 °C 40.5 °F /  4.7 °C 29.7in /  1005.0hPa South 13mph /  20.9km/h 18mph /  29km/h 90% 0in /  0.0mm 0 W/m2
03:24 43.2 °F /  6.2 °C 40.5 °F /  4.7 °C 29.7in /  1004.9hPa South 13mph /  20.9km/h 20mph /  32.2km/h 90% 0in /  0.0mm 0 W/m2
03:29 43.2 °F /  6.2 °C 40.5 °F /  4.7 °C 29.7in /  1004.8hPa South 13.7mph /  22km/h 20mph /  32.2km/h 90.2% 0in /  0.0mm 0 W/m2
03:34 43.3 °F /  6.3 °C 40.8 °F /  4.9 °C 29.7in /  1004.6hPa South 14.7mph /  23.7km/h 21mph /  33.8km/h 90.8% 0in /  0.0mm 0 W/m2
03:39 43.5 °F /  6.4 °C 41 °F /  5 °C 29.7in /  1004.4hPa South 12.7mph /  20.4km/h 21mph /  33.8km/h 91% 0in /  0.0mm 0 W/m2
03:44 44.1 °F /  6.7 °C 41.5 °F /  5.3 °C 29.7in /  1004.1hPa South 12.3mph /  19.8km/h 20mph /  32.2km/h 91% 0in /  0.0mm 0 W/m2
03:49 44.4 °F /  6.9 °C 42.1 °F /  5.6 °C 29.7in /  1004.2hPa South 14mph /  22.6km/h 23mph /  37km/h 91% 0in /  0.0mm 0 W/m2
03:54 45 °F /  7.2 °C 42.1 °F /  5.6 °C 29.7in /  1004.3hPa South 16mph /  25.7km/h 23mph /  37km/h 90.1% 0in /  0.0mm 0 W/m2
03:59 45 °F /  7.2 °C 42.3 °F /  5.7 °C 29.7in /  1004.3hPa South 15.6mph /  25.1km/h 25mph /  40.2km/h 90% 0in /  0.0mm 0 W/m2
04:04 45 °F /  7.2 °C 42.3 °F /  5.7 °C 29.7in /  1004.2hPa South 17mph /  27.4km/h 25mph /  40.2km/h 90% 0in /  0.0mm 0 W/m2
04:09 45 °F /  7.2 °C 42.3 °F /  5.7 °C 29.7in /  1004.0hPa South 14.1mph /  22.7km/h 22mph /  35.4km/h 90% 0in /  0.0mm 0 W/m2
04:14 45 °F /  7.2 °C 42.3 °F /  5.7 °C 29.6in /  1003.8hPa South 14.5mph /  23.4km/h 21mph /  33.8km/h 90% 0in /  0.0mm 0 W/m2
04:19 45 °F /  7.2 °C 42.3 °F /  5.7 °C 29.6in /  1003.8hPa South 14.3mph /  23km/h 23mph /  37km/h 90% 0in /  0.0mm 0 W/m2
04:24 45 °F /  7.2 °C 42.3 °F /  5.7 °C 29.6in /  1003.7hPa South 13.4mph /  21.5km/h 23mph /  37km/h 90% 0in /  0.0mm 0 W/m2
04:29 45.1 °F /  7.3 °C 42.4 °F /  5.8 °C 29.6in /  1003.5hPa South 15.7mph /  25.3km/h 27mph /  43.5km/h 90% 0in /  0.0mm 0 W/m2
04:34 45.1 °F /  7.3 °C 42.1 °F /  5.6 °C 29.6in /  1003.4hPa South 18mph /  29km/h 27mph /  43.5km/h 89.1% 0in /  0.0mm 0 W/m2
04:39 45.3 °F /  7.4 °C 42.3 °F /  5.7 °C 29.6in /  1003.2hPa South 14.5mph /  23.4km/h 24mph /  38.6km/h 89% 0in /  0.0mm 0 W/m2
04:44 45.3 °F /  7.4 °C 42.3 °F /  5.7 °C 29.6in /  1003.2hPa South 13.7mph /  22.1km/h 24mph /  38.6km/h 89% 0in /  0.0mm 0 W/m2
04:49 45.3 °F /  7.4 °C 42.3 °F /  5.7 °C 29.6in /  1003.2hPa South 15.3mph /  24.7km/h 24mph /  38.6km/h 89% 0in /  0.0mm 0 W/m2
04:54 45.3 °F /  7.4 °C 42.3 °F /  5.7 °C 29.6in /  1003.2hPa South 15mph /  24.2km/h 25mph /  40.2km/h 89% 0in /  0.0mm 0 W/m2
04:59 45.3 °F /  7.4 °C 42.3 °F /  5.7 °C 29.6in /  1003.2hPa South 13.7mph /  22.1km/h 25mph /  40.2km/h 89% 0in /  0.0mm 0 W/m2
05:04 45.3 °F /  7.4 °C 42.3 °F /  5.7 °C 29.6in /  1003.2hPa South 11.2mph /  18.1km/h 18mph /  29km/h 89% 0in /  0.0mm 0 W/m2
05:09 45.1 °F /  7.3 °C 42.1 °F /  5.6 °C 29.6in /  1003.2hPa South 10.9mph /  17.5km/h 19mph /  30.6km/h 89% 0in /  0.0mm 0 W/m2
05:14 45.1 °F /  7.3 °C 42.1 °F /  5.6 °C 29.6in /  1003.3hPa South 10.3mph /  16.5km/h 23mph /  37km/h 89% 0in /  0.0mm 0 W/m2
05:19 45.1 °F /  7.3 °C 42.1 °F /  5.6 °C 29.6in /  1003.3hPa South 12.7mph /  20.5km/h 23mph /  37km/h 89% 0in /  0.0mm 0 W/m2
05:24 45.3 °F /  7.4 °C 42.3 °F /  5.7 °C 29.6in /  1003.4hPa South 13.7mph /  22.1km/h 25mph /  40.2km/h 89% 0in /  0.0mm 0 W/m2
05:29 45.1 °F /  7.3 °C 42.1 °F /  5.6 °C 29.6in /  1003.4hPa South 11.4mph /  18.4km/h 20mph /  32.2km/h 89% 0in /  0.0mm 0 W/m2
05:34 45.1 °F /  7.3 °C 42.1 °F /  5.6 °C 29.6in /  1003.1hPa South 10.1mph /  16.3km/h 16mph /  25.7km/h 89% 0in /  0.0mm 0 W/m2
05:39 45.1 °F /  7.3 °C 42.1 °F /  5.6 °C 29.6in /  1003.1hPa SSE 9.3mph /  14.9km/h 13mph /  20.9km/h 89% 0in /  0.0mm 0 W/m2
05:44 45 °F /  7.2 °C 41.9 °F /  5.5 °C 29.6in /  1003.0hPa SSE 8.8mph /  14.2km/h 15mph /  24.1km/h 88.6% 0in /  0.0mm 0 W/m2
05:49 44.8 °F /  7.1 °C 41.5 °F /  5.3 °C 29.6in /  1002.8hPa SSE 9.3mph /  14.9km/h 15mph /  24.1km/h 88.5% 0in /  0.0mm 0 W/m2
05:54 44.8 °F /  7.1 °C 41.9 °F /  5.5 °C 29.6in /  1002.6hPa SSE 10.5mph /  16.9km/h 18mph /  29km/h 89.3% 0in /  0.0mm 0 W/m2
05:59 45.1 °F /  7.3 °C 42.1 °F /  5.6 °C 29.6in /  1002.3hPa SSE 9.8mph /  15.7km/h 18mph /  29km/h 89.2% 0in /  0.0mm 0 W/m2
06:04 45.3 °F /  7.4 °C 42.3 °F /  5.7 °C 29.6in /  1002.0hPa South 14.8mph /  23.9km/h 25mph /  40.2km/h 89% 0in /  0.0mm 0 W/m2
06:09 45.7 °F /  7.6 °C 42.6 °F /  5.9 °C 29.6in /  1001.8hPa South 16.6mph /  26.7km/h 28mph /  45.1km/h 88.7% 0in /  0.0mm 0 W/m2
06:14 45.9 °F /  7.7 °C 42.6 °F /  5.9 °C 29.6in /  1001.6hPa South 17.9mph /  28.8km/h 31mph /  49.9km/h 88% 0in /  0.0mm 0 W/m2
06:19 46 °F /  7.8 °C 42.8 °F /  6 °C 29.6in /  1001.6hPa South 18.6mph /  29.9km/h 31mph /  49.9km/h 88% 0in /  0.0mm 0 W/m2
06:24 46.2 °F /  7.9 °C 42.8 °F /  6 °C 29.6in /  1001.6hPa South 19.3mph /  31.1km/h 27mph /  43.5km/h 87.5% 0in /  0.0mm 0 W/m2
06:29 46.6 °F /  8.1 °C 42.8 °F /  6 °C 29.6in /  1001.9hPa South 16.5mph /  26.6km/h 26mph /  41.8km/h 87% 0in /  0.0mm 0 W/m2
06:34 46.6 °F /  8.1 °C 42.8 °F /  6 °C 29.6in /  1001.9hPa South 19.4mph /  31.2km/h 30mph /  48.3km/h 87% 0in /  0.0mm 0 W/m2
06:39 46.4 °F /  8 °C 42.8 °F /  6 °C 29.6in /  1001.6hPa South 20mph /  32.2km/h 30mph /  48.3km/h 87% 0in /  0.0mm 0 W/m2
06:44 46.4 °F /  8 °C 42.6 °F /  5.9 °C 29.6in /  1001.3hPa South 17.8mph /  28.6km/h 30mph /  48.3km/h 87% 0in /  0.0mm 0 W/m2
06:49 46.4 °F /  8 °C 42.8 °F /  6 °C 29.6in /  1001.1hPa South 16.3mph /  26.2km/h 28mph /  45.1km/h 87% 0in /  0.0mm 0 W/m2
06:54 46.6 °F /  8.1 °C 42.8 °F /  6 °C 29.6in /  1001.2hPa South 16.8mph /  27km/h 25mph /  40.2km/h 87% 0in /  0.0mm 0 W/m2
06:59 46.4 °F /  8 °C 42.6 °F /  5.9 °C 29.6in /  1001.1hPa South 14.8mph /  23.9km/h 24mph /  38.6km/h 87% 0in /  0.0mm 0 W/m2
07:04 46.2 °F /  7.9 °C 42.6 °F /  5.9 °C 29.6in /  1000.8hPa SSE 13.5mph /  21.7km/h 24mph /  38.6km/h 87% 0in /  0.0mm 0 W/m2
07:09 46 °F /  7.8 °C 42.4 °F /  5.8 °C 29.5in /  1000.5hPa SSE 12.9mph /  20.8km/h 25mph /  40.2km/h 87% 0in /  0.0mm 0 W/m2
07:14 46 °F /  7.8 °C 42.4 °F /  5.8 °C 29.5in /  1000.5hPa SSE 12.3mph /  19.8km/h 25mph /  40.2km/h 87.2% 0in /  0.0mm 0 W/m2
07:19 45.9 °F /  7.7 °C 42.4 °F /  5.8 °C 29.6in /  1000.7hPa South 15.4mph /  24.8km/h 25mph /  40.2km/h 87.8% 0in /  0.0mm 0 W/m2
07:24 45.7 °F /  7.6 °C 42.4 °F /  5.8 °C 29.6in /  1000.7hPa South 16.3mph /  26.2km/h 25mph /  40.2km/h 88.2% 0in /  0.0mm 0 W/m2
07:29 45.7 °F /  7.6 °C 42.6 °F /  5.9 °C 29.5in /  1000.5hPa South 15.3mph /  24.7km/h 24mph /  38.6km/h 88.9% 0in /  0.0mm 0 W/m2
07:34 45.7 °F /  7.6 °C 42.6 °F /  5.9 °C 29.5in /  1000.4hPa SSE 12.8mph /  20.6km/h 23mph /  37km/h 89% 0in /  0.0mm 0 W/m2
07:39 45.9 °F /  7.7 °C 42.6 °F /  5.9 °C 29.5in /  1000.4hPa South 12mph /  19.3km/h 21mph /  33.8km/h 89% 0in /  0.0mm 0 W/m2
07:44 45.9 °F /  7.7 °C 43 °F /  6.1 °C 29.5in /  1000.3hPa South 12.9mph /  20.7km/h 25mph /  40.2km/h 89.2% 0in /  0.0mm 0 W/m2
07:49 46 °F /  7.8 °C 43.3 °F /  6.3 °C 29.5in /  1000.3hPa South 14.5mph /  23.3km/h 26mph /  41.8km/h 90% 0in /  0.0mm 0 W/m2
07:54 46.2 °F /  7.9 °C 43.3 °F /  6.3 °C 29.5in /  1000.4hPa South 14.6mph /  23.5km/h 26mph /  41.8km/h 90% 0in /  0.0mm 0 W/m2
07:59 46.2 °F /  7.9 °C 43.3 °F /  6.3 °C 29.5in /  1000.4hPa South 17.4mph /  28km/h 27mph /  43.5km/h 90% 0in /  0.0mm 5 W/m2
08:04 46.2 °F /  7.9 °C 43.3 °F /  6.3 °C 29.5in /  1000.2hPa South 15.2mph /  24.5km/h 27mph /  43.5km/h 90% 0in /  0.0mm 9 W/m2
08:09 46.2 °F /  7.9 °C 43.3 °F /  6.3 °C 29.5in /  1000.1hPa South 15mph /  24.2km/h 24mph /  38.6km/h 90% 0in /  0.0mm 11 W/m2
08:14 46.2 °F /  7.9 °C 43.5 °F /  6.4 °C 29.5in /  1000.1hPa South 15.2mph /  24.5km/h 25mph /  40.2km/h 90% 0in /  0.0mm 16 W/m2
08:19 46.4 °F /  8 °C 43.5 °F /  6.4 °C 29.5in /  999.9hPa South 13.6mph /  21.9km/h 24mph /  38.6km/h 90% 0in /  0.0mm 19 W/m2
08:24 46.6 °F /  8.1 °C 43.7 °F /  6.5 °C 29.5in /  999.8hPa South 14.6mph /  23.5km/h 24mph /  38.6km/h 90% 0in /  0.0mm 19 W/m2
08:29 46.6 °F /  8.1 °C 43.9 °F /  6.6 °C 29.5in /  1000.0hPa South 14.4mph /  23.1km/h 23mph /  37km/h 90% 0in /  0.0mm 19 W/m2
08:34 46.8 °F /  8.2 °C 44.1 °F /  6.7 °C 29.5in /  1000.0hPa South 15.6mph /  25.1km/h 26mph /  41.8km/h 90% 0in /  0.0mm 21 W/m2
08:39 46.9 °F /  8.3 °C 44.2 °F /  6.8 °C 29.5in /  999.9hPa South 18.4mph /  29.6km/h 29mph /  46.7km/h 90% 0in /  0.0mm 25 W/m2
08:44 47.1 °F /  8.4 °C 44.2 °F /  6.8 °C 29.5in /  999.8hPa South 17mph /  27.3km/h 29mph /  46.7km/h 90% 0in /  0.0mm 25 W/m2
08:49 47.3 °F /  8.5 °C 44.4 °F /  6.9 °C 29.5in /  999.7hPa South 16.2mph /  26km/h 25mph /  40.2km/h 90% 0in /  0.0mm 33 W/m2
08:54 47.5 °F /  8.6 °C 44.8 °F /  7.1 °C 29.5in /  999.6hPa South 17mph /  27.4km/h 26mph /  41.8km/h 90% 0in /  0.0mm 33 W/m2
08:59 47.7 °F /  8.7 °C 44.8 °F /  7.1 °C 29.5in /  999.6hPa South 18.1mph /  29.1km/h 29mph /  46.7km/h 90% 0in /  0.0mm 28 W/m2
09:04 47.7 °F /  8.7 °C 45 °F /  7.2 °C 29.5in /  999.5hPa South 16.5mph /  26.6km/h 29mph /  46.7km/h 90% 0in /  0.0mm 33 W/m2
09:09 47.7 °F /  8.7 °C 45 °F /  7.2 °C 29.5in /  999.4hPa South 19.2mph /  30.9km/h 29mph /  46.7km/h 90% 0in /  0.0mm 44 W/m2
09:14 47.8 °F /  8.8 °C 45 °F /  7.2 °C 29.5in /  999.4hPa South 19.4mph /  31.3km/h 29mph /  46.7km/h 90.2% 0in /  0.0mm 56 W/m2
09:19 47.8 °F /  8.8 °C 45.3 °F /  7.4 °C 29.5in /  999.1hPa South 20.6mph /  33.1km/h 30mph /  48.3km/h 90.8% 0in /  0.0mm 74 W/m2
09:24 48.2 °F /  9 °C 45.7 °F /  7.6 °C 29.5in /  999.0hPa South 19.8mph /  31.8km/h 30mph /  48.3km/h 91% 0in /  0.0mm 76 W/m2
09:29 48.6 °F /  9.2 °C 46 °F /  7.8 °C 29.5in /  998.6hPa South 21.3mph /  34.3km/h 32mph /  51.5km/h 91% 0in /  0.0mm 72 W/m2
09:34 48.7 °F /  9.3 °C 46 °F /  7.8 °C 29.5in /  998.5hPa South 22.2mph /  35.7km/h 35mph /  56.3km/h 90.3% 0in /  0.0mm 65 W/m2
09:39 49.3 °F /  9.6 °C 46.4 °F /  8 °C 29.5in /  998.6hPa South 27.8mph /  44.7km/h 37mph /  59.5km/h 90% 0in /  0.0mm 60 W/m2
09:44 49.5 °F /  9.7 °C 46.6 °F /  8.1 °C 29.5in /  998.7hPa South 23.9mph /  38.5km/h 36mph /  57.9km/h 90% 0in /  0.0mm 56 W/m2
09:49 49.5 °F /  9.7 °C 46.8 °F /  8.2 °C 29.5in /  998.6hPa South 27.4mph /  44.1km/h 38mph /  61.2km/h 90% 0in /  0.0mm 54 W/m2
09:54 49.6 °F /  9.8 °C 46.8 °F /  8.2 °C 29.5in /  998.6hPa South 25.1mph /  40.4km/h 37mph /  59.5km/h 90% 0in /  0.0mm 51 W/m2
09:59 49.8 °F /  9.9 °C 46.9 °F /  8.3 °C 29.5in /  998.5hPa South 26mph /  41.9km/h 36mph /  57.9km/h 90% 0in /  0.0mm 40 W/m2
10:04 49.8 °F /  9.9 °C 47.1 °F /  8.4 °C 29.5in /  998.4hPa South 24.3mph /  39.1km/h 36mph /  57.9km/h 90% 0in /  0.0mm 40 W/m2
10:09 50 °F /  10 °C 47.3 °F /  8.5 °C 29.5in /  998.4hPa South 24.4mph /  39.2km/h 34mph /  54.7km/h 90% 0in /  0.0mm 49 W/m2
10:14 50.2 °F /  10.1 °C 47.5 °F /  8.6 °C 29.5in /  998.4hPa South 25mph /  40.2km/h 34mph /  54.7km/h 90% 0in /  0.0mm 53 W/m2
10:19 50.5 °F /  10.3 °C 47.7 °F /  8.7 °C 29.5in /  998.2hPa South 25.7mph /  41.3km/h 36mph /  57.9km/h 90% 0in /  0.0mm 53 W/m2
10:24 50.7 °F /  10.4 °C 47.8 °F /  8.8 °C 29.5in /  998.1hPa South 26.3mph /  42.3km/h 36mph /  57.9km/h 90% 0in /  0.0mm 69 W/m2
10:29 51.1 °F /  10.6 °C 48.2 °F /  9 °C 29.5in /  998.0hPa South 27mph /  43.5km/h 43mph /  69.2km/h 90% 0in /  0.0mm 72 W/m2
10:34 51.3 °F /  10.7 °C 48 °F /  8.9 °C 29.5in /  998.0hPa South 28.3mph /  45.6km/h 43mph /  69.2km/h 89% 0in /  0.0mm 77 W/m2
10:39 51.4 °F /  10.8 °C 48.2 °F /  9 °C 29.5in /  998.0hPa SSW 27.3mph /  43.9km/h 36mph /  57.9km/h 89% 0in /  0.0mm 77 W/m2
10:44 51.4 °F /  10.8 °C 48.4 °F /  9.1 °C 29.5in /  998.0hPa South 26.8mph /  43.1km/h 37mph /  59.5km/h 89% 0in /  0.0mm 76 W/m2
10:49 51.6 °F /  10.9 °C 48.6 °F /  9.2 °C 29.5in /  998.0hPa South 28mph /  45.1km/h 37mph /  59.5km/h 89% 0in /  0.0mm 88 W/m2
10:54 51.8 °F /  11 °C 48.7 °F /  9.3 °C 29.5in /  997.9hPa South 25.8mph /  41.5km/h 41mph /  66km/h 89% 0in /  0.0mm 97 W/m2
10:59 52 °F /  11.1 °C 48.7 °F /  9.3 °C 29.5in /  997.7hPa South 25.9mph /  41.7km/h 41mph /  66km/h 89% 0in /  0.0mm 95 W/m2
11:04 52.2 °F /  11.2 °C 48.9 °F /  9.4 °C 29.5in /  997.7hPa South 29mph /  46.6km/h 37mph /  59.5km/h 89% 0in /  0.0mm 102 W/m2
11:09 52.3 °F /  11.3 °C 49.1 °F /  9.5 °C 29.5in /  997.8hPa South 29.3mph /  47.2km/h 38mph /  61.2km/h 89% 0in /  0.0mm 113 W/m2
11:14 52.3 °F /  11.3 °C 49.3 °F /  9.6 °C 29.5in /  997.8hPa South 28.1mph /  45.3km/h 37mph /  59.5km/h 89% 0in /  0.0mm 137 W/m2
11:19 52.7 °F /  11.5 °C 49.6 °F /  9.8 °C 29.5in /  997.7hPa South 30.1mph /  48.4km/h 44mph /  70.8km/h 89.2% 0in /  0.0mm 146 W/m2
11:24 53.1 °F /  11.7 °C 49.8 °F /  9.9 °C 29.5in /  997.7hPa South 26.7mph /  43km/h 44mph /  70.8km/h 89.2% 0in /  0.0mm 146 W/m2
11:29 53.1 °F /  11.7 °C 50 °F /  10 °C 29.5in /  997.6hPa South 27mph /  43.4km/h 38mph /  61.2km/h 89% 0in /  0.0mm 169 W/m2
11:34 53.4 °F /  11.9 °C 50.2 °F /  10.1 °C 29.5in /  997.4hPa South 27.8mph /  44.7km/h 41mph /  66km/h 89% 0in /  0.0mm 171 W/m2
11:39 53.8 °F /  12.1 °C 50.5 °F /  10.3 °C 29.5in /  997.3hPa South 28.7mph /  46.2km/h 41mph /  66km/h 89% 0in /  0.0mm 155 W/m2
11:44 54 °F /  12.2 °C 50.7 °F /  10.4 °C 29.5in /  997.3hPa South 29.3mph /  47.1km/h 39mph /  62.8km/h 89% 0in /  0.0mm 153 W/m2
11:49 54.1 °F /  12.3 °C 51.1 °F /  10.6 °C 29.5in /  997.2hPa South 27.1mph /  43.6km/h 39mph /  62.8km/h 89% 0in /  0.0mm 146 W/m2
11:54 54.3 °F /  12.4 °C 51.1 °F /  10.6 °C 29.5in /  997.2hPa South 29mph /  46.7km/h 41mph /  66km/h 89% 0in /  0.0mm 128 W/m2
11:59 54.7 °F /  12.6 °C 51.4 °F /  10.8 °C 29.5in /  997.2hPa South 27.5mph /  44.2km/h 41mph /  66km/h 89% 0in /  0.0mm 167 W/m2
12:04 54.9 °F /  12.7 °C 51.6 °F /  10.9 °C 29.5in /  997.2hPa South 26.7mph /  42.9km/h 39mph /  62.8km/h 88.6% 0in /  0.0mm 167 W/m2
12:09 55 °F /  12.8 °C 51.6 °F /  10.9 °C 29.5in /  997.3hPa South 27.1mph /  43.6km/h 40mph /  64.4km/h 88% 0in /  0.0mm 176 W/m2
12:14 55.4 °F /  13 °C 52 °F /  11.1 °C 29.5in /  997.3hPa South 23.9mph /  38.4km/h 40mph /  64.4km/h 88% 0in /  0.0mm 193 W/m2
12:19 55.6 °F /  13.1 °C 52.2 °F /  11.2 °C 29.5in /  997.2hPa South 27.2mph /  43.8km/h 41mph /  66km/h 88% 0in /  0.0mm 209 W/m2
12:24 55.8 °F /  13.2 °C 52.3 °F /  11.3 °C 29.4in /  997.0hPa South 24.2mph /  38.9km/h 40mph /  64.4km/h 88% 0in /  0.0mm 171 W/m2
12:29 55.9 °F /  13.3 °C 52.3 °F /  11.3 °C 29.4in /  996.8hPa South 24.1mph /  38.8km/h 36mph /  57.9km/h 88% 0in /  0.0mm 243 W/m2
12:34 56.1 °F /  13.4 °C 52.5 °F /  11.4 °C 29.4in /  996.6hPa South 20.7mph /  33.3km/h 35mph /  56.3km/h 88% 0in /  0.0mm 211 W/m2
12:39 56.3 °F /  13.5 °C 52.5 °F /  11.4 °C 29.4in /  996.7hPa South 24.7mph /  39.7km/h 35mph /  56.3km/h 87.3% 0in /  0.0mm 230 W/m2
12:44 56.5 °F /  13.6 °C 52.9 °F /  11.6 °C 29.4in /  996.7hPa South 26.3mph /  42.3km/h 40mph /  64.4km/h 87.8% 0in /  0.0mm 230 W/m2
12:49 56.7 °F /  13.7 °C 52.9 °F /  11.6 °C 29.4in /  996.5hPa South 25.5mph /  41.1km/h 40mph /  64.4km/h 87% 0in /  0.0mm 227 W/m2
12:54 56.7 °F /  13.7 °C 52.9 °F /  11.6 °C 29.4in /  996.4hPa South 24.2mph /  39km/h 36mph /  57.9km/h 87% 0in /  0.0mm 120 W/m2
12:59 56.7 °F /  13.7 °C 52.9 °F /  11.6 °C 29.4in /  996.4hPa South 24.3mph /  39.1km/h 36mph /  57.9km/h 87% 0in /  0.0mm 114 W/m2
13:04 56.7 °F /  13.7 °C 52.9 °F /  11.6 °C 29.4in /  996.3hPa South 26.4mph /  42.5km/h 36mph /  57.9km/h 87% 0in /  0.0mm 86 W/m2
13:09 56.7 °F /  13.7 °C 52.9 °F /  11.6 °C 29.4in /  996.2hPa South 25mph /  40.3km/h 39mph /  62.8km/h 87% 0in /  0.0mm 97 W/m2
13:14 56.7 °F /  13.7 °C 52.9 °F /  11.6 °C 29.4in /  996.2hPa South 26.5mph /  42.7km/h 40mph /  64.4km/h 87% 0in /  0.0mm 142 W/m2
13:19 56.8 °F /  13.8 °C 53.1 °F /  11.7 °C 29.4in /  996.0hPa South 24.8mph /  39.9km/h 37mph /  59.5km/h 87% 0in /  0.0mm 142 W/m2
13:24 57 °F /  13.9 °C 53.2 °F /  11.8 °C 29.4in /  996.0hPa South 26.1mph /  42km/h 37mph /  59.5km/h 87% 0in /  0.0mm 120 W/m2
13:29 57 °F /  13.9 °C 53.2 °F /  11.8 °C 29.4in /  996.1hPa SSW 26.7mph /  42.9km/h 40mph /  64.4km/h 87.4% 0in /  0.0mm 86 W/m2
13:34 56.8 °F /  13.8 °C 53.4 °F /  11.9 °C 29.4in /  996.0hPa SSW 28mph /  45.1km/h 44mph /  70.8km/h 88.4% 0in /  0.0mm 65 W/m2
13:39 56.3 °F /  13.5 °C 53.4 °F /  11.9 °C 29.4in /  996.1hPa SSW 25.9mph /  41.7km/h 38mph /  61.2km/h 89.5% 0.01in /  0.2mm 74 W/m2
13:44 55.9 °F /  13.3 °C 53.4 °F /  11.9 °C 29.4in /  996.1hPa SSW 20.3mph /  32.7km/h 30mph /  48.3km/h 90.8% 0.01in /  0.2mm 32 W/m2
13:49 55.8 °F /  13.2 °C 53.2 °F /  11.8 °C 29.4in /  996.1hPa SW 13.4mph /  21.5km/h 29mph /  46.7km/h 91.2% 0.01in /  0.2mm 21 W/m2
13:54 55.6 °F /  13.1 °C 53.2 °F /  11.8 °C 29.4in /  995.9hPa SW 12.1mph /  19.4km/h 23mph /  37km/h 92% 0.01in /  0.2mm 25 W/m2
13:59 55.4 °F /  13 °C 53.2 °F /  11.8 °C 29.4in /  995.9hPa WSW 11.4mph /  18.4km/h 19mph /  30.6km/h 92.2% 0.02in /  0.5mm 23 W/m2
14:04 55 °F /  12.8 °C 53.1 °F /  11.7 °C 29.4in /  995.8hPa SW 12.2mph /  19.7km/h 16mph /  25.7km/h 93% 0.06in /  1.5mm 18 W/m2
14:09 54.9 °F /  12.7 °C 53.1 °F /  11.7 °C 29.4in /  995.5hPa SW 11.4mph /  18.3km/h 14mph /  22.5km/h 93.8% 0.06in /  1.5mm 18 W/m2
14:14 54.9 °F /  12.7 °C 53.2 °F /  11.8 °C 29.4in /  995.7hPa SW 12.9mph /  20.7km/h 19mph /  30.6km/h 94% 0.07in /  1.8mm 16 W/m2
14:19 54.7 °F /  12.6 °C 53.1 °F /  11.7 °C 29.4in /  995.7hPa SW 13.5mph /  21.7km/h 24mph /  38.6km/h 94% 0.1in /  2.5mm 44 W/m2
14:24 54.7 °F /  12.6 °C 53.2 °F /  11.8 °C 29.4in /  995.6hPa SSW 18.8mph /  30.2km/h 24mph /  38.6km/h 94.8% 0.12in /  3.0mm 49 W/m2
14:29 54.5 °F /  12.5 °C 53.1 °F /  11.7 °C 29.4in /  995.5hPa SSW 18.8mph /  30.2km/h 26mph /  41.8km/h 94.8% 0.13in /  3.3mm 47 W/m2
14:34 54 °F /  12.2 °C 52.3 °F /  11.3 °C 29.4in /  995.3hPa SSW 22.2mph /  35.7km/h 30mph /  48.3km/h 94.5% 0.14in /  3.6mm 53 W/m2
14:39 53.4 °F /  11.9 °C 51.8 °F /  11 °C 29.4in /  995.1hPa SSW 21.1mph /  33.9km/h 29mph /  46.7km/h 94% 0.14in /  3.6mm 70 W/m2
14:44 53.8 °F /  12.1 °C 52 °F /  11.1 °C 29.4in /  995.2hPa SSW 18.8mph /  30.3km/h 26mph /  41.8km/h 93.6% 0.14in /  3.6mm 70 W/m2
14:49 54.1 °F /  12.3 °C 52.2 °F /  11.2 °C 29.4in /  995.1hPa SSW 18mph /  29km/h 27mph /  43.5km/h 92.5% 0.14in /  3.6mm 74 W/m2
14:54 54.3 °F /  12.4 °C 52 °F /  11.1 °C 29.4in /  995.1hPa SW 16.7mph /  26.8km/h 23mph /  37km/h 92% 0.14in /  3.6mm 60 W/m2
14:59 54.1 °F /  12.3 °C 52.2 °F /  11.2 °C 29.4in /  995.1hPa SSW 14.4mph /  23.1km/h 23mph /  37km/h 92.8% 0.14in /  3.6mm 58 W/m2
15:04 54.1 °F /  12.3 °C 52.2 °F /  11.2 °C 29.4in /  995.0hPa SSW 10.6mph /  17km/h 16mph /  25.7km/h 93% 0.12in /  3.0mm 77 W/m2
15:09 54 °F /  12.2 °C 52.3 °F /  11.3 °C 29.4in /  994.5hPa SSW 9.1mph /  14.7km/h 14mph /  22.5km/h 93.9% 0.09in /  2.3mm 93 W/m2
15:14 54 °F /  12.2 °C 52.3 °F /  11.3 °C 29.4in /  994.3hPa SSW 9.1mph /  14.7km/h 14mph /  22.5km/h 94% 0.09in /  2.3mm 88 W/m2
15:19 54.1 °F /  12.3 °C 52.5 °F /  11.4 °C 29.4in /  994.2hPa SSW 9mph /  14.5km/h 13mph /  20.9km/h 94% 0.08in /  2.0mm 69 W/m2
15:24 54.1 °F /  12.3 °C 52.5 °F /  11.4 °C 29.4in /  994.2hPa SSW 9.8mph /  15.7km/h 13mph /  20.9km/h 94.2% 0.06in /  1.5mm 88 W/m2
15:29 54.1 °F /  12.3 °C 52.7 °F /  11.5 °C 29.4in /  993.9hPa South 5.1mph /  8.2km/h 10mph /  16.1km/h 95% 0.04in /  1.0mm 88 W/m2
15:34 54.1 °F /  12.3 °C 52.9 °F /  11.6 °C 29.3in /  993.7hPa South 6.5mph /  10.5km/h 10mph /  16.1km/h 95% 0.02in /  0.5mm 72 W/m2
15:39 54.3 °F /  12.4 °C 52.9 °F /  11.6 °C 29.3in /  993.4hPa South 5.3mph /  8.6km/h 9mph /  14.5km/h 95% 0.02in /  0.5mm 76 W/m2
15:44 54.7 °F /  12.6 °C 53.2 °F /  11.8 °C 29.3in /  993.3hPa SSE 6.4mph /  10.3km/h 13mph /  20.9km/h 95% 0.01in /  0.2mm 76 W/m2
15:49 54.7 °F /  12.6 °C 53.2 °F /  11.8 °C 29.3in /  993.3hPa South 9.4mph /  15.1km/h 16mph /  25.7km/h 95% 0.01in /  0.2mm 35 W/m2
15:54 54.3 °F /  12.4 °C 53.1 °F /  11.7 °C 29.3in /  993.4hPa South 13.6mph /  21.9km/h 21mph /  33.8km/h 95% 0.01in /  0.2mm 23 W/m2
15:59 54.3 °F /  12.4 °C 52.9 °F /  11.6 °C 29.3in /  993.3hPa SSW 13.9mph /  22.3km/h 20mph /  32.2km/h 95% 0.03in /  0.8mm 56 W/m2
16:04 54.1 °F /  12.3 °C 52.7 °F /  11.5 °C 29.3in /  992.7hPa SSW 16.1mph /  25.9km/h 21mph /  33.8km/h 95% 0.04in /  1.0mm 54 W/m2
16:09 54.1 °F /  12.3 °C 52.7 °F /  11.5 °C 29.3in /  992.5hPa SSW 17mph /  27.4km/h 22mph /  35.4km/h 95% 0.05in /  1.3mm 28 W/m2
16:14 54 °F /  12.2 °C 52.5 °F /  11.4 °C 29.3in /  992.5hPa South 17.1mph /  27.6km/h 23mph /  37km/h 95% 0.05in /  1.3mm 32 W/m2
16:19 53.8 °F /  12.1 °C 52.3 °F /  11.3 °C 29.3in /  992.5hPa SSW 15.8mph /  25.5km/h 26mph /  41.8km/h 95% 0.05in /  1.3mm 28 W/m2
16:24 53.6 °F /  12 °C 52.2 °F /  11.2 °C 29.3in /  992.5hPa SSW 17.1mph /  27.6km/h 26mph /  41.8km/h 95% 0.06in /  1.5mm 19 W/m2
16:29 53.2 °F /  11.8 °C 52 °F /  11.1 °C 29.3in /  992.2hPa SSW 17.1mph /  27.5km/h 25mph /  40.2km/h 95% 0.08in /  2.0mm 30 W/m2
16:34 53.2 °F /  11.8 °C 51.8 °F /  11 °C 29.3in /  991.9hPa SSW 15.8mph /  25.5km/h 23mph /  37km/h 95% 0.09in /  2.3mm 16 W/m2
16:39 53.1 °F /  11.7 °C 51.6 °F /  10.9 °C 29.3in /  991.9hPa SW 17.8mph /  28.6km/h 23mph /  37km/h 95% 0.09in /  2.3mm 11 W/m2
16:44 53.1 °F /  11.7 °C 51.6 °F /  10.9 °C 29.3in /  991.8hPa SW 14.4mph /  23.1km/h 23mph /  37km/h 95% 0.11in /  2.8mm 16 W/m2
16:49 53.1 °F /  11.7 °C 51.6 °F /  10.9 °C 29.3in /  992.0hPa SW 17mph /  27.3km/h 25mph /  40.2km/h 95% 0.12in /  3.0mm 11 W/m2
16:54 53.1 °F /  11.7 °C 52 °F /  11.1 °C 29.3in /  992.0hPa SW 17mph /  27.4km/h 25mph /  40.2km/h 95.8% 0.14in /  3.6mm 11 W/m2
16:59 53.1 °F /  11.7 °C 52 °F /  11.1 °C 29.3in /  991.9hPa SW 14.8mph /  23.9km/h 22mph /  35.4km/h 96% 0.14in /  3.6mm 7 W/m2
17:04 53.1 °F /  11.7 °C 52 °F /  11.1 °C 29.3in /  991.6hPa SW 14.5mph /  23.3km/h 21mph /  33.8km/h 96% 0.13in /  3.3mm 7 W/m2
17:09 53.1 °F /  11.7 °C 52 °F /  11.1 °C 29.3in /  991.5hPa SW 14.7mph /  23.7km/h 24mph /  38.6km/h 96% 0.13in /  3.3mm 5 W/m2
17:14 53.1 °F /  11.7 °C 52 °F /  11.1 °C 29.3in /  991.3hPa SW 14.3mph /  23km/h 22mph /  35.4km/h 96% 0.13in /  3.3mm 0 W/m2
17:19 53.1 °F /  11.7 °C 52 °F /  11.1 °C 29.3in /  991.1hPa SW 13.5mph /  21.8km/h 22mph /  35.4km/h 96% 0.13in /  3.3mm 0 W/m2
17:24 53.1 °F /  11.7 °C 52 °F /  11.1 °C 29.3in /  991.2hPa SSW 15.2mph /  24.4km/h 22mph /  35.4km/h 96% 0.12in /  3.0mm 0 W/m2
17:29 53.2 °F /  11.8 °C 52 °F /  11.1 °C 29.3in /  991.3hPa SSW 15.8mph /  25.4km/h 21mph /  33.8km/h 96% 0.11in /  2.8mm 0 W/m2
17:34 53.2 °F /  11.8 °C 52.2 °F /  11.2 °C 29.3in /  991.3hPa SSW 15mph /  24.2km/h 22mph /  35.4km/h 96% 0.1in /  2.5mm 0 W/m2
17:39 53.2 °F /  11.8 °C 52.2 °F /  11.2 °C 29.3in /  991.1hPa SSW 15.8mph /  25.4km/h 22mph /  35.4km/h 96% 0.1in /  2.5mm 0 W/m2
17:44 53.1 °F /  11.7 °C 52 °F /  11.1 °C 29.3in /  990.9hPa SSW 13.9mph /  22.3km/h 20mph /  32.2km/h 96% 0.09in /  2.3mm 0 W/m2
17:49 53.1 °F /  11.7 °C 52 °F /  11.1 °C 29.3in /  991.0hPa SSW 14.9mph /  24km/h 23mph /  37km/h 96% 0.07in /  1.8mm 0 W/m2
17:54 53.1 °F /  11.7 °C 52 °F /  11.1 °C 29.3in /  991.0hPa SSW 15.2mph /  24.4km/h 21mph /  33.8km/h 96% 0.06in /  1.5mm 0 W/m2
17:59 53.1 °F /  11.7 °C 52 °F /  11.1 °C 29.3in /  991.2hPa SSW 15mph /  24.1km/h 21mph /  33.8km/h 96% 0.04in /  1.0mm 0 W/m2
18:04 53.1 °F /  11.7 °C 52 °F /  11.1 °C 29.3in /  991.3hPa SSW 16.8mph /  27.1km/h 24mph /  38.6km/h 96% 0.03in /  0.8mm 0 W/m2
18:09 53.1 °F /  11.7 °C 52 °F /  11.1 °C 29.3in /  991.3hPa SSW 16.5mph /  26.6km/h 24mph /  38.6km/h 96% 0.03in /  0.8mm 0 W/m2
18:14 53.2 °F /  11.8 °C 52.2 °F /  11.2 °C 29.3in /  991.4hPa SSW 15.5mph /  24.9km/h 21mph /  33.8km/h 96% 0.03in /  0.8mm 0 W/m2
18:19 53.2 °F /  11.8 °C 52.2 °F /  11.2 °C 29.3in /  991.4hPa SSW 16mph /  25.7km/h 23mph /  37km/h 96% 0.02in /  0.5mm 0 W/m2
18:24 53.2 °F /  11.8 °C 52 °F /  11.1 °C 29.3in /  991.2hPa SSW 16.8mph /  27km/h 24mph /  38.6km/h 96% 0.02in /  0.5mm 0 W/m2
18:29 53.2 °F /  11.8 °C 52.2 °F /  11.2 °C 29.3in /  991.2hPa SSW 18mph /  28.9km/h 25mph /  40.2km/h 95.9% 0.02in /  0.5mm 0 W/m2
18:34 53.2 °F /  11.8 °C 51.8 °F /  11 °C 29.3in /  991.2hPa SSW 17.1mph /  27.5km/h 25mph /  40.2km/h 95% 0.02in /  0.5mm 0 W/m2
18:39 53.2 °F /  11.8 °C 51.8 °F /  11 °C 29.3in /  991.1hPa SSW 17.9mph /  28.8km/h 24mph /  38.6km/h 95% 0.02in /  0.5mm 0 W/m2
18:44 53.2 °F /  11.8 °C 51.8 °F /  11 °C 29.3in /  991.0hPa SSW 19.2mph /  30.9km/h 29mph /  46.7km/h 95% 0.02in /  0.5mm 0 W/m2
18:49 53.4 °F /  11.9 °C 52 °F /  11.1 °C 29.3in /  991.0hPa SSW 18.9mph /  30.4km/h 24mph /  38.6km/h 95% 0.02in /  0.5mm 0 W/m2
18:54 53.4 °F /  11.9 °C 52 °F /  11.1 °C 29.3in /  991.0hPa SSW 18.3mph /  29.5km/h 24mph /  38.6km/h 95% 0.02in /  0.5mm 0 W/m2
18:59 53.4 °F /  11.9 °C 52 °F /  11.1 °C 29.3in /  990.9hPa SSW 17.1mph /  27.6km/h 25mph /  40.2km/h 95% 0.02in /  0.5mm 0 W/m2
19:04 53.4 °F /  11.9 °C 51.8 °F /  11 °C 29.3in /  990.8hPa SSW 16.1mph /  25.9km/h 25mph /  40.2km/h 94.2% 0.02in /  0.5mm 0 W/m2
19:09 53.6 °F /  12 °C 52 °F /  11.1 °C 29.3in /  990.8hPa SSW 16.5mph /  26.5km/h 22mph /  35.4km/h 94% 0.02in /  0.5mm 0 W/m2
19:14 53.6 °F /  12 °C 52 °F /  11.1 °C 29.3in /  990.7hPa South 17.1mph /  27.5km/h 23mph /  37km/h 94% 0.01in /  0.2mm 0 W/m2
19:19 53.6 °F /  12 °C 51.8 °F /  11 °C 29.3in /  990.6hPa South 16.1mph /  25.9km/h 23mph /  37km/h 94% 0.01in /  0.2mm 0 W/m2
19:24 53.4 °F /  11.9 °C 51.8 °F /  11 °C 29.3in /  990.5hPa South 17.2mph /  27.7km/h 28mph /  45.1km/h 94% 0.01in /  0.2mm 0 W/m2
19:29 53.4 °F /  11.9 °C 51.8 °F /  11 °C 29.2in /  990.4hPa South 18.6mph /  29.9km/h 28mph /  45.1km/h 94% 0.01in /  0.2mm 0 W/m2
19:34 53.4 °F /  11.9 °C 51.6 °F /  10.9 °C 29.2in /  990.4hPa South 18.1mph /  29.1km/h 26mph /  41.8km/h 94% 0.01in /  0.2mm 0 W/m2
19:39 53.4 °F /  11.9 °C 51.8 °F /  11 °C 29.3in /  990.5hPa SSW 18.3mph /  29.5km/h 30mph /  48.3km/h 94% 0in /  0.0mm 0 W/m2
19:44 53.6 °F /  12 °C 51.8 °F /  11 °C 29.3in /  990.5hPa SSW 20.5mph /  33km/h 30mph /  48.3km/h 93.6% 0in /  0.0mm 0 W/m2
19:49 54 °F /  12.2 °C 52 °F /  11.1 °C 29.2in /  990.4hPa SSW 21.6mph /  34.8km/h 28mph /  45.1km/h 93% 0in /  0.0mm 0 W/m2
19:54 54 °F /  12.2 °C 52 °F /  11.1 °C 29.2in /  990.4hPa SSW 21mph /  33.8km/h 31mph /  49.9km/h 92.9% 0in /  0.0mm 0 W/m2
19:59 54.1 °F /  12.3 °C 52 °F /  11.1 °C 29.3in /  990.5hPa SSW 19.7mph /  31.7km/h 31mph /  49.9km/h 92% 0in /  0.0mm 0 W/m2
20:04 54.1 °F /  12.3 °C 52 °F /  11.1 °C 29.2in /  990.3hPa SSW 19.1mph /  30.7km/h 25mph /  40.2km/h 92% 0in /  0.0mm 0 W/m2
20:09 54.1 °F /  12.3 °C 52 °F /  11.1 °C 29.2in /  990.2hPa SSW 18.5mph /  29.7km/h 25mph /  40.2km/h 92% 0in /  0.0mm 0 W/m2
20:14 54.1 °F /  12.3 °C 52 °F /  11.1 °C 29.2in /  990.2hPa SSW 16.7mph /  26.9km/h 23mph /  37km/h 92% 0in /  0.0mm 0 W/m2
20:19 54.1 °F /  12.3 °C 52 °F /  11.1 °C 29.2in /  990.1hPa SSW 18.7mph /  30.1km/h 24mph /  38.6km/h 92% 0in /  0.0mm 0 W/m2
20:24 54.3 °F /  12.4 °C 52 °F /  11.1 °C 29.2in /  990.2hPa SSW 19.2mph /  30.9km/h 25mph /  40.2km/h 92% 0in /  0.0mm 0 W/m2
20:29 54.1 °F /  12.3 °C 52 °F /  11.1 °C 29.2in /  990.2hPa SSW 16mph /  25.8km/h 24mph /  38.6km/h 92% 0in /  0.0mm 0 W/m2
20:34 54 °F /  12.2 °C 51.8 °F /  11 °C 29.2in /  990.2hPa SSW 14.3mph /  23km/h 21mph /  33.8km/h 92% 0in /  0.0mm 0 W/m2
20:39 54 °F /  12.2 °C 51.6 °F /  10.9 °C 29.2in /  990.3hPa SSW 16.3mph /  26.2km/h 21mph /  33.8km/h 92% 0in /  0.0mm 0 W/m2
20:44 54.1 °F /  12.3 °C 51.8 °F /  11 °C 29.2in /  990.2hPa SSW 18.5mph /  29.7km/h 26mph /  41.8km/h 92% 0.01in /  0.2mm 0 W/m2
20:49 54.1 °F /  12.3 °C 52 °F /  11.1 °C 29.2in /  990.1hPa SSW 17.8mph /  28.7km/h 25mph /  40.2km/h 92% 0.01in /  0.2mm 0 W/m2
20:54 54.1 °F /  12.3 °C 51.8 °F /  11 °C 29.2in /  990.0hPa SSW 18.5mph /  29.8km/h 25mph /  40.2km/h 92% 0.01in /  0.2mm 0 W/m2
20:59 54 °F /  12.2 °C 51.6 °F /  10.9 °C 29.2in /  990.1hPa SSW 20.3mph /  32.7km/h 26mph /  41.8km/h 92% 0.01in /  0.2mm 0 W/m2
21:04 54 °F /  12.2 °C 51.6 °F /  10.9 °C 29.3in /  990.6hPa SSW 19.7mph /  31.7km/h 25mph /  40.2km/h 92% 0.01in /  0.2mm 0 W/m2
21:09 52.5 °F /  11.4 °C 49.6 °F /  9.8 °C 29.3in /  990.8hPa West 16.6mph /  26.7km/h 22mph /  35.4km/h 90% 0.01in /  0.2mm 0 W/m2
21:14 50.9 °F /  10.5 °C 48.4 °F /  9.1 °C 29.3in /  990.8hPa West 12.6mph /  20.2km/h 20mph /  32.2km/h 90.9% 0.01in /  0.2mm 0 W/m2
21:19 50.4 °F /  10.2 °C 48 °F /  8.9 °C 29.3in /  990.7hPa West 10.4mph /  16.8km/h 15mph /  24.1km/h 92% 0.01in /  0.2mm 0 W/m2
21:24 50 °F /  10 °C 48 °F /  8.9 °C 29.3in /  990.5hPa WNW 9.3mph /  14.9km/h 14mph /  22.5km/h 92.6% 0.01in /  0.2mm 0 W/m2
21:29 49.8 °F /  9.9 °C 47.8 °F /  8.8 °C 29.3in /  990.5hPa West 8mph /  12.9km/h 12mph /  19.3km/h 93% 0.01in /  0.2mm 0 W/m2
21:34 49.6 °F /  9.8 °C 47.7 °F /  8.7 °C 29.3in /  990.5hPa West 7.9mph /  12.7km/h 12mph /  19.3km/h 93% 0.01in /  0.2mm 0 W/m2
21:39 49.5 °F /  9.7 °C 47.5 °F /  8.6 °C 29.2in /  990.2hPa West 4.3mph /  7km/h 9mph /  14.5km/h 93% 0.01in /  0.2mm 0 W/m2
21:44 49.5 °F /  9.7 °C 47.5 °F /  8.6 °C 29.3in /  990.6hPa West 4.2mph /  6.7km/h 7mph /  11.3km/h 93% 0.01in /  0.2mm 0 W/m2
21:49 49.3 °F /  9.6 °C 47.7 °F /  8.7 °C 29.3in /  991.2hPa West 5mph /  8.1km/h 9mph /  14.5km/h 94% 0in /  0.0mm 0 W/m2
21:54 49.1 °F /  9.5 °C 47.5 °F /  8.6 °C 29.3in /  991.2hPa West 4mph /  6.5km/h 9mph /  14.5km/h 94% 0in /  0.0mm 0 W/m2
21:59 49.1 °F /  9.5 °C 47.5 °F /  8.6 °C 29.3in /  991.3hPa West 4.2mph /  6.7km/h 9mph /  14.5km/h 94% 0in /  0.0mm 0 W/m2
22:04 48.9 °F /  9.4 °C 47.3 °F /  8.5 °C 29.3in /  991.5hPa WSW 4.7mph /  7.5km/h 7mph /  11.3km/h 94% 0in /  0.0mm 0 W/m2
22:09 48.9 °F /  9.4 °C 47.3 °F /  8.5 °C 29.3in /  991.5hPa WSW 5mph /  8km/h 9mph /  14.5km/h 94% 0in /  0.0mm 0 W/m2
22:14 48.9 °F /  9.4 °C 47.3 °F /  8.5 °C 29.3in /  991.5hPa WSW 4.5mph /  7.3km/h 9mph /  14.5km/h 94% 0in /  0.0mm 0 W/m2
22:19 48.9 °F /  9.4 °C 47.3 °F /  8.5 °C 29.3in /  991.3hPa WSW 4mph /  6.4km/h 7mph /  11.3km/h 94% 0in /  0.0mm 0 W/m2
22:24 48.9 °F /  9.4 °C 47.3 °F /  8.5 °C 29.3in /  991.5hPa West 2.9mph /  4.7km/h 7mph /  11.3km/h 94% 0in /  0.0mm 0 W/m2
22:29 48.9 °F /  9.4 °C 47.3 °F /  8.5 °C 29.3in /  991.6hPa West 3.3mph /  5.3km/h 7mph /  11.3km/h 94% 0.01in /  0.2mm 0 W/m2
22:34 48.9 °F /  9.4 °C 47.3 °F /  8.5 °C 29.3in /  991.7hPa West 2.5mph /  4.1km/h 6mph /  9.7km/h 94% 0.01in /  0.2mm 0 W/m2
22:39 48.9 °F /  9.4 °C 47.3 °F /  8.5 °C 29.3in /  991.7hPa WSW 4.3mph /  7km/h 10mph /  16.1km/h 94% 0.01in /  0.2mm 0 W/m2
22:44 48.9 °F /  9.4 °C 47.3 °F /  8.5 °C 29.3in /  991.6hPa WSW 5.3mph /  8.5km/h 10mph /  16.1km/h 94% 0.01in /  0.2mm 0 W/m2
22:49 48.9 °F /  9.4 °C 47.3 °F /  8.5 °C 29.3in /  991.4hPa West 3.1mph /  5km/h 7mph /  11.3km/h 94% 0.01in /  0.2mm 0 W/m2
22:54 48.9 °F /  9.4 °C 47.3 °F /  8.5 °C 29.3in /  991.4hPa West 3.8mph /  6.1km/h 7mph /  11.3km/h 94% 0.01in /  0.2mm 0 W/m2
22:59 48.9 °F /  9.4 °C 47.3 °F /  8.5 °C 29.3in /  991.4hPa WSW 3.2mph /  5.2km/h 8mph /  12.9km/h 94% 0.01in /  0.2mm 0 W/m2
23:04 48.9 °F /  9.4 °C 47.3 °F /  8.5 °C 29.3in /  991.4hPa WSW 3.8mph /  6.1km/h 8mph /  12.9km/h 94% 0.01in /  0.2mm 0 W/m2
23:09 48.7 °F /  9.3 °C 46.9 °F /  8.3 °C 29.3in /  991.4hPa WSW 3.5mph /  5.6km/h 7mph /  11.3km/h 93.6% 0.02in /  0.5mm 0 W/m2
23:14 48.7 °F /  9.3 °C 46.8 °F /  8.2 °C 29.3in /  991.5hPa WSW 4.2mph /  6.8km/h 8mph /  12.9km/h 93% 0.02in /  0.5mm 0 W/m2
23:19 48.7 °F /  9.3 °C 46.8 °F /  8.2 °C 29.3in /  991.7hPa SW 6.3mph /  10.2km/h 8mph /  12.9km/h 93% 0.02in /  0.5mm 0 W/m2
23:24 48.6 °F /  9.2 °C 46.8 °F /  8.2 °C 29.3in /  991.9hPa WSW 6.3mph /  10.2km/h 10mph /  16.1km/h 93.4% 0.02in /  0.5mm 0 W/m2
23:29 48.6 °F /  9.2 °C 46.9 °F /  8.3 °C 29.3in /  991.8hPa SW 6.8mph /  10.9km/h 10mph /  16.1km/h 94% 0.02in /  0.5mm 0 W/m2
23:34 48.6 °F /  9.2 °C 46.9 °F /  8.3 °C 29.3in /  991.7hPa SW 6.6mph /  10.6km/h 9mph /  14.5km/h 94% 0.01in /  0.2mm 0 W/m2
23:39 48.6 °F /  9.2 °C 46.9 °F /  8.3 °C 29.3in /  991.9hPa SW 7.4mph /  11.9km/h 11mph /  17.7km/h 94% 0.01in /  0.2mm 0 W/m2
23:44 48.7 °F /  9.3 °C 47.1 °F /  8.4 °C 29.3in /  991.9hPa SW 8.3mph /  13.4km/h 11mph /  17.7km/h 94% 0.01in /  0.2mm 0 W/m2
23:49 48.7 °F /  9.3 °C 47.1 °F /  8.4 °C 29.3in /  991.9hPa SW 8.7mph /  14km/h 12mph /  19.3km/h 94% 0.01in /  0.2mm 0 W/m2
23:54 48.7 °F /  9.3 °C 47.1 °F /  8.4 °C 29.3in /  991.8hPa SW 10.3mph /  16.6km/h 14mph /  22.5km/h 94% 0.01in /  0.2mm 0 W/m2
23:59 48.7 °F /  9.3 °C 47.1 °F /  8.4 °C 29.3in /  992.0hPa SW 10.9mph /  17.6km/h 19mph /  30.6km/h 93.9% 0.01in /  0.2mm 0 W/m2
North Lincolnshire Weather
Compliments of Weather Underground - 2 mb

Data updates at regular intervals.